Flight Track Log - Related Links

Times and Time Zones

All times are in EDT time to prevent confusion due to time zone crossing. See the AAL297 flight status page for this flight to view local times or setup timezone preferences in your user account.

Time Position Orientation Groundspeed Altitude Reporting Facility
EDT Latitude Longitude Course Direction KTS MPH feet Rate Location/Type
Thu 07:32:52 PM 33.9333 -118.4333 180° South 165 190 1,500  Level Southern California TRACON
Thu 07:34:10 PM 33.8917 -118.5125 238° Southwest 238 274 3,600 1,929 Climbing Los Angeles Center
Thu 07:35:00 PM 33.7720 -118.6469 187° South  Level FlightAware Approximate
Thu 07:35:12 PM 33.8406 -118.5772 226° Southwest 265 305 6,000  Level Los Angeles Center
Thu 07:36:00 PM 33.6617 -118.6694 186° South  Level FlightAware Approximate
Thu 07:36:15 PM 33.7822 -118.6275 216° Southwest 275 316 8,000  Level Los Angeles Center
Thu 07:37:00 PM 33.5468 -118.6833 180° South  Level FlightAware Approximate
Thu 07:37:17 PM 33.6903 -118.6550 194° South 289 333 10,300  Level Los Angeles Center
Thu 07:38:00 PM 33.4323 -118.7000 180° South  Level FlightAware Approximate
Thu 07:38:19 PM 33.6003 -118.6733 190° South 331 381 11,100  Level Los Angeles Center
Thu 07:39:21 PM 33.4967 -118.6936 189° South 368 423 12,200 1,403 Climbing Los Angeles Center
Thu 07:40:23 PM 33.3972 -118.7431 203° Southwest 396 456 14,000 1,984 Climbing Los Angeles Center
Thu 07:41:25 PM 33.3172 -118.8339 224° Southwest 396 456 16,300 2,516 Climbing Los Angeles Center
Thu 07:42:27 PM 33.2178 -118.9406 222° Southwest 400 460 19,200 1,984 Climbing Los Angeles Center
Thu 07:43:29 PM 33.1464 -119.0467 231° Southwest 414 476 20,400 1,306 Climbing Los Angeles Center
Thu 07:44:31 PM 33.0647 -119.1525 227° Southwest 433 498 21,900 1,548 Climbing Los Angeles Center
Thu 07:45:33 PM 32.9756 -119.2592 225° Southwest 450 518 23,600 1,887 Climbing Los Angeles Center
Thu 07:46:35 PM 32.8881 -119.3636 225° Southwest 449 517 25,800 1,742 Climbing Los Angeles Center
Thu 07:47:37 PM 32.8003 -119.4692 225° Southwest 449 517 27,200 1,258 Climbing Los Angeles Center
Thu 07:48:39 PM 32.6911 -119.6000 225° Southwest 464 534 28,400 1,488 Climbing Los Angeles Center
Thu 07:49:42 PM 32.5981 -119.7111 225° Southwest 474 545 30,300 1,536 Climbing Los Angeles Center
Thu 07:50:44 PM 32.5108 -119.8211 227° Southwest 461 531 31,600 1,403 Climbing Los Angeles Center
Thu 07:51:46 PM 32.4358 -119.9442 234° Southwest 462 532 33,200 1,452 Climbing Los Angeles Center
Thu 07:52:48 PM 32.3644 -120.0644 235° Southwest 447 514 34,600 968 Climbing Los Angeles Center
Thu 07:53:50 PM 32.2942 -120.1819 235° Southwest 441 507 35,200 629 Climbing Los Angeles Center
Thu 07:54:52 PM 32.2219 -120.3039 235° Southwest 450 518 35,900 387 Climbing Los Angeles Center
Thu 07:55:54 PM 32.1339 -120.4503 235° Southwest 455 524 36,000 48 Climbing Los Angeles Center
Thu 07:56:56 PM 32.0597 -120.5706 234° Southwest 454 522 36,000  Level Los Angeles Center
Thu 07:57:58 PM 31.9875 -120.6886 234° Southwest 447 514 36,000  Level Los Angeles Center
Thu 07:59:00 PM 31.9303 -120.7839 235° Southwest 447 514 36,000  Level Los Angeles Center
Thu 08:00:04 PM 31.8436 -120.9244 234° Southwest 442 509 36,000  Level Los Angeles Center
Thu 08:01:06 PM 31.7589 -121.0653 235° Southwest 440 506 36,000  Level Los Angeles Center
Thu 08:02:08 PM 31.6869 -121.1772 233° Southwest 432 497 36,000  Level Los Angeles Center
Thu 08:04:00 PM 31.5555 -121.3751 232° Southwest  Level FlightAware Approximate
Thu 08:11:00 PM 31.3728 -122.2891 257° West  Level FlightAware Approximate
Thu 08:12:00 PM 31.3467 -122.4197 257° West  Level FlightAware Approximate
Thu 08:13:00 PM 31.3204 -122.5502 257° West  Level FlightAware Approximate
Thu 08:14:00 PM 31.2941 -122.6806 257° West  Level FlightAware Approximate
Thu 08:15:00 PM 31.2677 -122.8110 257° West  Level FlightAware Approximate
Thu 08:16:00 PM 31.2413 -122.9413 257° West  Level FlightAware Approximate
Thu 08:17:00 PM 31.2147 -123.0715 257° West  Level FlightAware Approximate
Thu 08:18:00 PM 31.1881 -123.2017 257° West  Level FlightAware Approximate
Thu 08:19:00 PM 31.1613 -123.3318 256° West  Level FlightAware Approximate
Thu 08:20:00 PM 31.1343 -123.4619 256° West  Level FlightAware Approximate
Thu 08:21:00 PM 31.1042 -123.5909 256° West  Level FlightAware Approximate
Thu 08:22:00 PM 31.0761 -123.7205 256° West  Level FlightAware Approximate
Thu 08:22:01 PM 31.1333 -123.5500 256° West 418 481 36,000  Level Oakland Oceanic (ODAPS)
Thu 08:23:00 PM 31.0479 -123.8500 256° West  Level FlightAware Approximate
Thu 08:24:00 PM 31.0195 -123.9795 256° West  Level FlightAware Approximate
Thu 08:25:00 PM 30.9910 -124.1089 256° West  Level FlightAware Approximate
Thu 08:26:00 PM 30.9624 -124.2382 256° West  Level FlightAware Approximate
Thu 08:27:00 PM 30.9342 -124.3685 256° West  Level FlightAware Approximate
Thu 08:28:00 PM 30.9014 -124.5965 255° West 418 481 36,000  Level FlightAware Transoceanic
Thu 08:29:00 PM 30.8718 -124.7270 255° West 418 481 36,000  Level FlightAware Transoceanic
Thu 08:30:00 PM 30.8421 -124.8573 255° West 418 481 36,000  Level FlightAware Transoceanic
Thu 08:31:00 PM 30.8122 -124.9876 255° West 418 481 36,000  Level FlightAware Transoceanic
Thu 08:32:00 PM 30.7822 -125.1178 255° West 418 481 36,000  Level FlightAware Transoceanic
Thu 08:33:00 PM 30.7521 -125.2479 255° West 418 481 36,000  Level FlightAware Transoceanic
Thu 08:34:00 PM 30.7219 -125.3780 255° West 418 481 36,000  Level FlightAware Transoceanic
Thu 08:35:00 PM 30.6915 -125.5080 255° West 418 481 36,000  Level FlightAware Transoceanic
Thu 08:36:00 PM 30.6611 -125.6378 255° West 418 481 36,000  Level FlightAware Transoceanic
Thu 08:37:00 PM 30.6304 -125.7676 255° West 418 481 36,000  Level FlightAware Transoceanic
Thu 08:38:00 PM 30.5997 -125.8974 255° West 418 481 36,000  Level FlightAware Transoceanic
Thu 08:39:00 PM 30.5688 -126.0270 254° West 418 481 36,000  Level FlightAware Transoceanic
Thu 08:40:00 PM 30.5378 -126.1565 254° West 418 481 36,000  Level FlightAware Transoceanic
Thu 08:41:00 PM 30.5066 -126.2860 254° West 418 481 36,000  Level FlightAware Transoceanic
Thu 08:42:00 PM 30.4754 -126.4154 254° West 418 481 36,000  Level FlightAware Transoceanic
Thu 08:43:00 PM 30.4440 -126.5447 254° West 418 481 36,000  Level FlightAware Transoceanic
Thu 08:44:00 PM 30.4125 -126.6739 254° West 418 481 36,000  Level FlightAware Transoceanic
Thu 08:45:00 PM 30.3808 -126.8031 254° West 418 481 36,000  Level FlightAware Transoceanic
Thu 08:46:00 PM 30.3490 -126.9321 254° West 418 481 36,000  Level FlightAware Transoceanic
Thu 08:47:00 PM 30.3171 -127.0611 254° West 418 481 36,000  Level FlightAware Transoceanic
Thu 08:48:00 PM 30.2851 -127.1900 254° West 418 481 36,000  Level FlightAware Transoceanic
Thu 08:49:00 PM 30.2529 -127.3188 254° West 418 481 36,000  Level FlightAware Transoceanic
Thu 08:50:00 PM 30.2207 -127.4475 254° West 418 481 36,000  Level FlightAware Transoceanic
Thu 08:51:00 PM 30.1882 -127.5761 254° West 418 481 36,000  Level FlightAware Transoceanic
Thu 08:52:00 PM 30.1557 -127.7047 254° West 418 481 36,000  Level FlightAware Transoceanic
Thu 08:53:00 PM 30.1231 -127.8331 254° West 418 481 36,000  Level FlightAware Transoceanic
Thu 08:54:00 PM 30.0903 -127.9615 254° West 418 481 36,000  Level FlightAware Transoceanic
Thu 08:55:00 PM 30.0574 -128.0898 253° West 418 481 36,000  Level FlightAware Transoceanic
Thu 08:56:00 PM 30.0243 -128.2180 253° West 418 481 36,000  Level FlightAware Transoceanic
Thu 08:57:00 PM 29.9912 -128.3461 253° West 418 481 36,000  Level FlightAware Transoceanic
Thu 08:58:00 PM 29.9579 -128.4742 253° West 418 481 36,000  Level FlightAware Transoceanic
Thu 08:59:00 PM 29.9245 -128.6021 253° West 418 481 36,000  Level FlightAware Transoceanic
Thu 09:00:00 PM 29.8910 -128.7300 253° West 418 481 36,000  Level FlightAware Transoceanic
Thu 09:01:00 PM 29.8573 -128.8578 253° West 418 481 36,000  Level FlightAware Transoceanic
Thu 09:02:00 PM 29.8235 -128.9854 253° West 418 481 36,000  Level FlightAware Transoceanic
Thu 09:03:00 PM 29.7897 -129.1131 253° West 418 481 36,000  Level FlightAware Transoceanic
Thu 09:04:00 PM 29.7556 -129.2406 253° West 418 481 36,000  Level FlightAware Transoceanic
Thu 09:05:00 PM 29.7215 -129.3680 253° West 418 481 36,000  Level FlightAware Transoceanic
Thu 09:06:00 PM 29.6872 -129.4953 253° West 418 481 36,000  Level FlightAware Transoceanic
Thu 09:07:00 PM 29.6528 -129.6226 253° West 418 481 36,000  Level FlightAware Transoceanic
Thu 09:08:00 PM 29.6183 -129.7498 253° West 418 481 36,000  Level FlightAware Transoceanic
Thu 09:09:00 PM 29.5837 -129.8769 253° West 418 481 36,000  Level FlightAware Transoceanic
Thu 09:10:00 PM 29.5490 -130.0039 253° West 418 481 36,000  Level FlightAware Transoceanic
Thu 09:11:00 PM 29.5141 -130.1308 252° West 418 481 36,000  Level FlightAware Transoceanic
Thu 09:12:00 PM 29.4791 -130.2576 252° West 418 481 36,000  Level FlightAware Transoceanic
Thu 09:13:00 PM 29.4440 -130.3843 252° West 418 481 36,000  Level FlightAware Transoceanic
Thu 09:14:00 PM 29.4088 -130.5110 252° West 418 481 36,000  Level FlightAware Transoceanic
Thu 09:15:00 PM 29.3734 -130.6375 252° West 418 481 36,000  Level FlightAware Transoceanic
Thu 09:16:00 PM 29.3380 -130.7640 252° West 418 481 36,000  Level FlightAware Transoceanic
Thu 09:17:00 PM 29.3024 -130.8904 252° West 418 481 36,000  Level FlightAware Transoceanic
Thu 09:18:00 PM 29.2667 -131.0167 252° West 418 481 36,000  Level FlightAware Transoceanic
Thu 09:19:00 PM 29.2302 -131.1453 252° West 418 481 36,000  Level FlightAware Transoceanic
Thu 09:20:00 PM 29.1936 -131.2738 252° West 418 481 36,000  Level FlightAware Transoceanic
Thu 09:21:00 PM 29.1569 -131.4023 252° West 418 481 36,000  Level FlightAware Transoceanic
Thu 09:21:44 PM 29.2667 -131.0167 252° West 425 489 36,000  Level Oakland Oceanic (ODAPS)
Thu 09:22:00 PM 29.1201 -131.5306 252° West 418 481 36,000  Level FlightAware Transoceanic
Thu 09:23:00 PM 29.0831 -131.6589 252° West 418 481 36,000  Level FlightAware Transoceanic
Thu 09:24:00 PM 29.0460 -131.7871 252° West 418 481 36,000  Level FlightAware Transoceanic
Thu 09:25:00 PM 29.0088 -131.9151 252° West 418 481 36,000  Level FlightAware Transoceanic
Thu 09:26:00 PM 28.9715 -132.0431 252° West 418 481 36,000  Level FlightAware Transoceanic
Thu 09:27:00 PM 28.9341 -132.1710 251° West 418 481 36,000  Level FlightAware Transoceanic
Thu 09:28:00 PM 28.8965 -132.2988 251° West 425 489 36,000  Level FlightAware Transoceanic
Thu 09:29:00 PM 28.8588 -132.4265 251° West 425 489 36,000  Level FlightAware Transoceanic
Thu 09:30:00 PM 28.8210 -132.5542 251° West 425 489 36,000  Level FlightAware Transoceanic
Thu 09:31:00 PM 28.7831 -132.6817 251° West 425 489 36,000  Level FlightAware Transoceanic
Thu 09:32:00 PM 28.7451 -132.8091 251° West 425 489 36,000  Level FlightAware Transoceanic
Thu 09:33:00 PM 28.7069 -132.9364 251° West 425 489 36,000  Level FlightAware Transoceanic
Thu 09:34:00 PM 28.6686 -133.0637 251° West 425 489 36,000  Level FlightAware Transoceanic
Thu 09:35:00 PM 28.6302 -133.1908 251° West 425 489 36,000  Level FlightAware Transoceanic
Thu 09:36:00 PM 28.5917 -133.3179 251° West 425 489 36,000  Level FlightAware Transoceanic
Thu 09:37:00 PM 28.5531 -133.4449 251° West 425 489 36,000  Level FlightAware Transoceanic
Thu 09:38:00 PM 28.5143 -133.5717 251° West 425 489 36,000  Level FlightAware Transoceanic
Thu 09:39:00 PM 28.4755 -133.6985 251° West 425 489 36,000  Level FlightAware Transoceanic
Thu 09:40:00 PM 28.4365 -133.8252 251° West 425 489 36,000  Level FlightAware Transoceanic
Thu 09:41:00 PM 28.3974 -133.9518 251° West 425 489 36,000  Level FlightAware Transoceanic
Thu 09:42:00 PM 28.3581 -134.0783 251° West 425 489 36,000  Level FlightAware Transoceanic
Thu 09:43:00 PM 28.3188 -134.2047 250° West 425 489 36,000  Level FlightAware Transoceanic
Thu 09:44:00 PM 28.2793 -134.3310 250° West 425 489 36,000  Level FlightAware Transoceanic
Thu 09:45:00 PM 28.2398 -134.4572 250° West 425 489 36,000  Level FlightAware Transoceanic
Thu 09:46:00 PM 28.2001 -134.5833 250° West 425 489 36,000  Level FlightAware Transoceanic
Thu 09:47:00 PM 28.1603 -134.7094 250° West 425 489 36,000  Level FlightAware Transoceanic
Thu 09:48:00 PM 28.1204 -134.8353 250° West 425 489 36,000  Level FlightAware Transoceanic
Thu 09:49:00 PM 28.0803 -134.9612 250° West 425 489 36,000  Level FlightAware Transoceanic
Thu 09:50:00 PM 28.0402 -135.0869 250° West 425 489 36,000  Level FlightAware Transoceanic
Thu 09:51:00 PM 27.9999 -135.2126 250° West 425 489 36,000  Level FlightAware Transoceanic
Thu 09:52:00 PM 27.9595 -135.3381 250° West 425 489 36,000  Level FlightAware Transoceanic
Thu 09:53:00 PM 27.9191 -135.4636 250° West 425 489 36,000  Level FlightAware Transoceanic
Thu 09:54:00 PM 27.8784 -135.5890 250° West 425 489 36,000  Level FlightAware Transoceanic
Thu 09:55:00 PM 27.8377 -135.7142 250° West 425 489 36,000  Level FlightAware Transoceanic
Thu 09:56:00 PM 27.7969 -135.8394 250° West 425 489 36,000  Level FlightAware Transoceanic
Thu 09:57:00 PM 27.7560 -135.9645 250° West 425 489 36,000  Level FlightAware Transoceanic
Thu 09:58:00 PM 27.7149 -136.0895 250° West 425 489 36,000  Level FlightAware Transoceanic
Thu 09:59:00 PM 27.6737 -136.2144 250° West 425 489 36,000  Level FlightAware Transoceanic
Thu 10:00:00 PM 27.6324 -136.3392 249° West 425 489 36,000  Level FlightAware Transoceanic
Thu 10:01:00 PM 27.5910 -136.4639 249° West 425 489 36,000  Level FlightAware Transoceanic
Thu 10:02:00 PM 27.5495 -136.5885 249° West 425 489 36,000  Level FlightAware Transoceanic
Thu 10:03:00 PM 27.5079 -136.7131 249° West 425 489 36,000  Level FlightAware Transoceanic
Thu 10:04:00 PM 27.4662 -136.8375 249° West 425 489 36,000  Level FlightAware Transoceanic
Thu 10:05:00 PM 27.4244 -136.9618 249° West 425 489 36,000  Level FlightAware Transoceanic
Thu 10:06:00 PM 27.3824 -137.0861 249° West 425 489 36,000  Level FlightAware Transoceanic
Thu 10:07:00 PM 27.3404 -137.2102 249° West 425 489 36,000  Level FlightAware Transoceanic
Thu 10:08:00 PM 27.2982 -137.3343 249° West 425 489 36,000  Level FlightAware Transoceanic
Thu 10:09:00 PM 27.2559 -137.4582 249° West 425 489 36,000  Level FlightAware Transoceanic
Thu 10:10:00 PM 27.2136 -137.5821 249° West 425 489 36,000  Level FlightAware Transoceanic
Thu 10:11:00 PM 27.1710 -137.7059 249° West 425 489 36,000  Level FlightAware Transoceanic
Thu 10:12:00 PM 27.1285 -137.8295 249° West 425 489 36,000  Level FlightAware Transoceanic
Thu 10:13:00 PM 27.0857 -137.9531 249° West 425 489 36,000  Level FlightAware Transoceanic
Thu 10:14:00 PM 27.0429 -138.0766 249° West 425 489 36,000  Level FlightAware Transoceanic
Thu 10:15:00 PM 27.0000 -138.2000 249° West 425 489 36,000  Level FlightAware Transoceanic
Thu 10:16:00 PM 26.9567 -138.3237 249° West 425 489 36,000  Level FlightAware Transoceanic
Thu 10:17:00 PM 26.9133 -138.4474 248° West 425 489 36,000  Level FlightAware Transoceanic
Thu 10:17:08 PM 27.0000 -138.2000 249° West 426 490 36,000  Level Oakland Oceanic (ODAPS)
Thu 10:18:00 PM 26.8698 -138.5709 248° West 425 489 36,000  Level FlightAware Transoceanic
Thu 10:19:00 PM 26.8261 -138.6944 248° West 425 489 36,000  Level FlightAware Transoceanic
Thu 10:20:00 PM 26.7824 -138.8177 248° West 425 489 36,000  Level FlightAware Transoceanic
Thu 10:21:00 PM 26.7386 -138.9409 248° West 425 489 36,000  Level FlightAware Transoceanic
Thu 10:22:00 PM 26.6946 -139.0641 248° West 425 489 36,000  Level FlightAware Transoceanic
Thu 10:23:00 PM 26.6506 -139.1872 248° West 426 490 36,000  Level FlightAware Transoceanic
Thu 10:24:00 PM 26.6064 -139.3101 248° West 426 490 36,000  Level FlightAware Transoceanic
Thu 10:25:00 PM 26.5621 -139.4330 248° West 426 490 36,000  Level FlightAware Transoceanic
Thu 10:26:00 PM 26.5178 -139.5558 248° West 426 490 36,000  Level FlightAware Transoceanic
Thu 10:27:00 PM 26.4733 -139.6785 248° West 426 490 36,000  Level FlightAware Transoceanic
Thu 10:28:00 PM 26.4287 -139.8011 248° West 426 490 36,000  Level FlightAware Transoceanic
Thu 10:29:00 PM 26.3840 -139.9236 248° West 426 490 36,000  Level FlightAware Transoceanic
Thu 10:30:00 PM 26.3392 -140.0460 248° West 426 490 36,000  Level FlightAware Transoceanic
Thu 10:31:00 PM 26.2943 -140.1683 248° West 426 490 36,000  Level FlightAware Transoceanic
Thu 10:32:00 PM 26.2493 -140.2905 248° West 426 490 36,000  Level FlightAware Transoceanic
Thu 10:33:00 PM 26.2042 -140.4126 248° West 426 490 36,000  Level FlightAware Transoceanic
Thu 10:34:00 PM 26.1590 -140.5346 248° West 426 490 36,000  Level FlightAware Transoceanic
Thu 10:35:00 PM 26.1137 -140.6565 247° West 426 490 36,000  Level FlightAware Transoceanic
Thu 10:36:00 PM 26.0683 -140.7784 247° West 426 490 36,000  Level FlightAware Transoceanic
Thu 10:37:00 PM 26.0228 -140.9001 247° West 426 490 36,000  Level FlightAware Transoceanic
Thu 10:38:00 PM 25.9772 -141.0217 247° West 426 490 36,000  Level FlightAware Transoceanic
Thu 10:39:00 PM 25.9315 -141.1433 247° West 426 490 36,000  Level FlightAware Transoceanic
Thu 10:40:00 PM 25.8857 -141.2647 247° West 426 490 36,000  Level FlightAware Transoceanic
Thu 10:41:00 PM 25.8397 -141.3861 247° West 426 490 36,000  Level FlightAware Transoceanic
Thu 10:42:00 PM 25.7937 -141.5074 247° West 426 490 36,000  Level FlightAware Transoceanic
Thu 10:43:00 PM 25.7476 -141.6285 247° West 426 490 36,000  Level FlightAware Transoceanic
Thu 10:44:00 PM 25.7014 -141.7496 247° West 426 490 36,000  Level FlightAware Transoceanic
Thu 10:45:00 PM 25.6551 -141.8706 247° West 426 490 36,000  Level FlightAware Transoceanic
Thu 10:46:00 PM 25.6087 -141.9915 247° West 426 490 36,000  Level FlightAware Transoceanic
Thu 10:47:00 PM 25.5621 -142.1123 247° West 426 490 36,000  Level FlightAware Transoceanic
Thu 10:48:00 PM 25.5155 -142.2330 247° West 426 490 36,000  Level FlightAware Transoceanic
Thu 10:49:00 PM 25.4688 -142.3536 247° West 426 490 36,000  Level FlightAware Transoceanic
Thu 10:50:00 PM 25.4220 -142.4741 247° West 426 490 36,000  Level FlightAware Transoceanic
Thu 10:51:00 PM 25.3751 -142.5945 247° West 426 490 36,000  Level FlightAware Transoceanic
Thu 10:52:00 PM 25.3281 -142.7148 247° West 426 490 36,000  Level FlightAware Transoceanic
Thu 10:53:00 PM 25.2810 -142.8351 247° West 426 490 36,000  Level FlightAware Transoceanic
Thu 10:54:00 PM 25.2338 -142.9552 246° West 426 490 36,000  Level FlightAware Transoceanic
Thu 10:55:00 PM 25.1865 -143.0752 246° West 426 490 36,000  Level FlightAware Transoceanic
Thu 10:56:00 PM 25.1391 -143.1952 246° West 426 490 36,000  Level FlightAware Transoceanic
Thu 10:57:00 PM 25.0916 -143.3150 246° West 426 490 36,000  Level FlightAware Transoceanic
Thu 10:58:00 PM 25.0440 -143.4348 246° West 426 490 36,000  Level FlightAware Transoceanic
Thu 10:59:00 PM 24.9963 -143.5545 246° West 426 490 36,000  Level FlightAware Transoceanic
Thu 11:00:00 PM 24.9485 -143.6741 246° West 426 490 36,000  Level FlightAware Transoceanic
Thu 11:01:00 PM 24.9006 -143.7936 246° West 426 490 36,000  Level FlightAware Transoceanic
Thu 11:02:00 PM 24.8527 -143.9129 246° West 426 490 36,000  Level FlightAware Transoceanic
Thu 11:03:00 PM 24.8046 -144.0323 246° West 426 490 36,000  Level FlightAware Transoceanic
Thu 11:04:00 PM 24.7564 -144.1515 246° West 426 490 36,000  Level FlightAware Transoceanic
Thu 11:05:00 PM 24.7082 -144.2706 246° West 426 490 36,000  Level FlightAware Transoceanic
Thu 11:06:00 PM 24.6598 -144.3896 246° West 426 490 36,000  Level FlightAware Transoceanic
Thu 11:07:00 PM 24.6114 -144.5085 246° West 426 490 36,000  Level FlightAware Transoceanic
Thu 11:08:00 PM 24.5628 -144.6274 246° West 426 490 36,000  Level FlightAware Transoceanic
Thu 11:09:00 PM 24.5142 -144.7461 246° West 426 490 36,000  Level FlightAware Transoceanic
Thu 11:10:00 PM 24.4655 -144.8648 246° West 426 490 36,000  Level FlightAware Transoceanic
Thu 11:11:00 PM 24.4167 -144.9833 246° West 426 490 36,000  Level FlightAware Transoceanic
Thu 11:12:00 PM 24.3679 -145.1016 246° West 426 490 36,000  Level FlightAware Transoceanic
Thu 11:13:00 PM 24.3190 -145.2197 246° West 426 490 36,000  Level FlightAware Transoceanic
Thu 11:13:44 PM 24.4167 -144.9833 246° West 433 498 36,000  Level Oakland Oceanic (ODAPS)
Thu 11:14:00 PM 24.2700 -145.3377 245° Southwest 426 490 36,000  Level FlightAware Transoceanic
Thu 11:15:00 PM 24.2209 -145.4557 245° Southwest 426 490 36,000  Level FlightAware Transoceanic
Thu 11:16:00 PM 24.1717 -145.5735 245° Southwest 426 490 36,000  Level FlightAware Transoceanic
Thu 11:17:00 PM 24.1224 -145.6913 245° Southwest 426 490 36,000  Level FlightAware Transoceanic
Thu 11:18:00 PM 24.0731 -145.8090 245° Southwest 426 490 36,000  Level FlightAware Transoceanic
Thu 11:19:00 PM 24.0237 -145.9266 245° Southwest 426 490 36,000  Level FlightAware Transoceanic
Thu 11:20:00 PM 24.0165 -145.9437 245° Southwest 433 498 36,000  Level FlightAware Transoceanic
Thu 11:21:00 PM 23.9660 -146.0633 245° Southwest 433 498 36,000  Level FlightAware Transoceanic
Thu 11:22:00 PM 23.9155 -146.1828 245° Southwest 433 498 36,000  Level FlightAware Transoceanic
Thu 11:23:00 PM 23.8648 -146.3022 245° Southwest 433 498 36,000  Level FlightAware Transoceanic
Thu 11:24:00 PM 23.8141 -146.4216 245° Southwest 433 498 36,000  Level FlightAware Transoceanic
Thu 11:25:00 PM 23.7633 -146.5408 245° Southwest 433 498 36,000  Level FlightAware Transoceanic
Thu 11:26:00 PM 23.7124 -146.6600 245° Southwest 433 498 36,000  Level FlightAware Transoceanic
Thu 11:27:00 PM 23.6614 -146.7790 245° Southwest 433 498 36,000  Level FlightAware Transoceanic
Thu 11:28:00 PM 23.6103 -146.8980 245° Southwest 433 498 36,000  Level FlightAware Transoceanic
Thu 11:29:00 PM 23.5591 -147.0168 245° Southwest 433 498 36,000  Level FlightAware Transoceanic
Thu 11:30:00 PM 23.5079 -147.1356 245° Southwest 433 498 36,000  Level FlightAware Transoceanic
Thu 11:31:00 PM 23.4565 -147.2543 245° Southwest 433 498 36,000  Level FlightAware Transoceanic
Thu 11:32:00 PM 23.4050 -147.3729 245° Southwest 433 498 36,000  Level FlightAware Transoceanic
Thu 11:33:00 PM 23.3535 -147.4914 245° Southwest 433 498 36,000  Level FlightAware Transoceanic
Thu 11:34:00 PM 23.3019 -147.6098 245° Southwest 433 498 36,000  Level FlightAware Transoceanic
Thu 11:35:00 PM 23.2502 -147.7281 245° Southwest 433 498 36,000  Level FlightAware Transoceanic
Thu 11:36:00 PM 23.1983 -147.8464 244° Southwest 433 498 36,000  Level FlightAware Transoceanic
Thu 11:37:00 PM 23.1465 -147.9645 244° Southwest 433 498 36,000  Level FlightAware Transoceanic
Thu 11:38:00 PM 23.0945 -148.0826 244° Southwest 433 498 36,000  Level FlightAware Transoceanic
Thu 11:39:00 PM 23.0424 -148.2005 244° Southwest 433 498 36,000  Level FlightAware Transoceanic
Thu 11:40:00 PM 22.9902 -148.3184 244° Southwest 433 498 36,000  Level FlightAware Transoceanic
Thu 11:41:00 PM 22.9380 -148.4361 244° Southwest 433 498 36,000  Level FlightAware Transoceanic
Thu 11:42:00 PM 22.8857 -148.5538 244° Southwest 433 498 36,000  Level FlightAware Transoceanic
Thu 11:43:00 PM 22.8333 -148.6714 244° Southwest 433 498 36,000  Level FlightAware Transoceanic
Thu 11:44:00 PM 22.7807 -148.7889 244° Southwest 433 498 36,000  Level FlightAware Transoceanic
Thu 11:45:00 PM 22.7281 -148.9063 244° Southwest 433 498 36,000  Level FlightAware Transoceanic
Thu 11:46:00 PM 22.6755 -149.0236 244° Southwest 433 498 36,000  Level FlightAware Transoceanic
Thu 11:47:00 PM 22.6227 -149.1408 244° Southwest 433 498 36,000  Level FlightAware Transoceanic
Thu 11:48:00 PM 22.5699 -149.2580 244° Southwest 433 498 36,000  Level FlightAware Transoceanic
Thu 11:49:00 PM 22.5169 -149.3750 244° Southwest 433 498 36,000  Level FlightAware Transoceanic
Thu 11:50:00 PM 22.4639 -149.4920 244° Southwest 433 498 36,000  Level FlightAware Transoceanic
Thu 11:51:00 PM 22.4108 -149.6088 244° Southwest 433 498 36,000  Level FlightAware Transoceanic
Thu 11:52:00 PM 22.3576 -149.7256 244° Southwest 433 498 36,000  Level FlightAware Transoceanic
Thu 11:53:00 PM 22.3044 -149.8423 244° Southwest 433 498 36,000  Level FlightAware Transoceanic
Thu 11:54:00 PM 22.2510 -149.9589 244° Southwest 433 498 36,000  Level FlightAware Transoceanic
Thu 11:55:00 PM 22.1976 -150.0754 244° Southwest 433 498 36,000  Level FlightAware Transoceanic
Thu 11:56:00 PM 22.1441 -150.1918 244° Southwest 433 498 36,000  Level FlightAware Transoceanic
Thu 11:57:00 PM 22.0905 -150.3082 244° Southwest 433 498 36,000  Level FlightAware Transoceanic
Thu 11:58:00 PM 22.0368 -150.4244 243° Southwest 433 498 36,000  Level FlightAware Transoceanic
Thu 11:59:00 PM 21.9830 -150.5406 243° Southwest 433 498 36,000  Level FlightAware Transoceanic
Fri 12:00:00 AM 21.9292 -150.6566 243° Southwest 433 498 36,000  Level FlightAware Transoceanic
Fri 12:01:00 AM 21.8752 -150.7726 243° Southwest 433 498 36,000  Level FlightAware Transoceanic
Fri 12:02:00 AM 21.8213 -150.8885 243° Southwest 433 498 36,000  Level FlightAware Transoceanic
Fri 12:03:00 AM 21.7672 -151.0043 243° Southwest 433 498 36,000  Level FlightAware Transoceanic
Fri 12:04:00 AM 21.7130 -151.1200 243° Southwest 433 498 36,000  Level FlightAware Transoceanic
Fri 12:05:00 AM 21.6587 -151.2357 243° Southwest 433 498 36,000  Level FlightAware Transoceanic
Fri 12:06:00 AM 21.6044 -151.3512 243° Southwest 433 498 36,000  Level FlightAware Transoceanic
Fri 12:07:00 AM 21.5500 -151.4667 243° Southwest 433 498 36,000  Level FlightAware Transoceanic
Fri 12:07:55 AM 21.5667 -151.4167 242° Southwest 420 483 36,000  Level Honolulu Center
Fri 12:08:00 AM 21.4928 -151.5852 243° Southwest 433 498 36,000  Level FlightAware Transoceanic
Fri 12:08:55 AM 21.5167 -151.5333 245° Southwest 430 495 36,000  Level Honolulu Center
Fri 12:09:00 AM 21.4355 -151.7036 243° Southwest 433 498 36,000  Level FlightAware Transoceanic
Fri 12:09:55 AM 21.4500 -151.6500 238° Southwest 430 495 36,000  Level Honolulu Center
Fri 12:10:00 AM 21.3782 -151.8219 242° Southwest 433 498 36,000  Level FlightAware Transoceanic
Fri 12:10:55 AM 21.4000 -151.7667 245° Southwest 430 495 36,000  Level Honolulu Center
Fri 12:11:00 AM 21.3207 -151.9401 242° Southwest 433 498 36,000  Level FlightAware Transoceanic
Fri 12:11:55 AM 21.3500 -151.8667 242° Southwest 430 495 36,000  Level Honolulu Center
Fri 12:12:00 AM 21.2632 -152.0582 242° Southwest 433 498 36,000  Level FlightAware Transoceanic
Fri 12:12:55 AM 21.3000 -151.9833 245° Southwest 430 495 36,000  Level Honolulu Center
Fri 12:13:00 AM 21.2056 -152.1763 242° Southwest 433 498 36,000  Level FlightAware Transoceanic
Fri 12:13:55 AM 21.2333 -152.1000 239° Southwest 430 495 36,000  Level Honolulu Center
Fri 12:14:56 AM 21.2000 -152.2167 253° West 410 472 36,000  Level Honolulu Center
Fri 12:15:55 AM 21.1833 -152.3500 262° West 420 483 36,000  Level Honolulu Center
Fri 12:16:56 AM 21.1833 -152.4833 270° West 430 495 36,000  Level Honolulu Center
Fri 12:17:56 AM 21.1667 -152.6000 261° West 430 495 36,000  Level Honolulu Center
Fri 12:18:56 AM 21.1667 -152.7333 270° West 430 495 36,000  Level Honolulu Center
Fri 12:19:56 AM 21.1500 -152.8500 261° West 430 495 36,000  Level Honolulu Center
Fri 12:20:56 AM 21.1500 -152.9833 270° West 430 495 36,000  Level Honolulu Center
Fri 12:21:56 AM 21.1333 -153.1167 262° West 430 495 36,000  Level Honolulu Center
Fri 12:22:56 AM 21.1167 -153.2333 261° West 420 483 36,000  Level Honolulu Center
Fri 12:23:56 AM 21.1167 -153.3667 270° West 430 495 36,000  Level Honolulu Center
Fri 12:24:57 AM 21.1000 -153.4833 261° West 430 495 36,000  Level Honolulu Center
Fri 12:25:57 AM 21.0833 -153.6167 262° West 420 483 36,000  Level Honolulu Center
Fri 12:26:57 AM 21.0833 -153.7500 270° West 420 483 36,000  Level Honolulu Center
Fri 12:27:57 AM 21.0667 -153.8667 261° West 420 483 36,000  Level Honolulu Center
Fri 12:28:57 AM 21.0500 -154.0000 262° West 420 483 36,000  Level Honolulu Center
Fri 12:29:57 AM 21.0333 -154.1167 261° West 420 483 36,000  Level Honolulu Center
Fri 12:30:57 AM 21.0333 -154.2500 270° West 420 483 36,000  Level Honolulu Center
Fri 12:31:57 AM 21.0167 -154.3667 261° West 430 495 36,000  Level Honolulu Center
Fri 12:32:57 AM 21.0000 -154.5000 262° West 430 495 36,000  Level Honolulu Center
Fri 12:33:57 AM 21.0000 -154.6167 270° West 420 483 36,000  Level Honolulu Center
Fri 12:34:58 AM 20.9833 -154.7500 262° West 420 483 36,000  Level Honolulu Center
Fri 12:35:58 AM 20.9667 -154.8667 261° West 420 483 36,000  Level Honolulu Center
Fri 12:36:58 AM 20.9500 -154.9833 261° West 430 495 36,000  Level Honolulu Center
Fri 12:37:58 AM 20.9500 -155.1167 270° West 430 495 36,000  Level Honolulu Center
Fri 12:38:58 AM 20.9333 -155.2333 261° West 430 495 36,000  Level Honolulu Center
Fri 12:39:58 AM 20.9167 -155.3667 262° West 420 483 36,000  Level Honolulu Center
Fri 12:40:58 AM 20.9000 -155.5000 262° West 430 495 36,000  Level Honolulu Center
Fri 12:41:59 AM 20.9000 -155.6167 270° West 420 483 36,000  Level Honolulu Center
Fri 12:42:59 AM 20.8833 -155.7500 262° West 420 483 36,000  Level Honolulu Center
Fri 12:43:58 AM 20.8667 -155.8667 261° West 420 483 36,000  Level Honolulu Center
Fri 12:44:59 AM 20.8500 -156.0167 263° West 430 495 36,000  Level Honolulu Center
Fri 12:45:59 AM 20.8333 -156.1500 262° West 420 483 36,000  Level Honolulu Center
Fri 12:46:59 AM 20.8333 -156.2667 270° West 420 483 36,000  Level Honolulu Center
Fri 12:47:59 AM 20.8167 -156.3833 261° West 440 506 36,000 -450 Level Honolulu Center
Fri 12:48:59 AM 20.8000 -156.5333 263° West 450 518 35,100 -1,200 Descending Honolulu Center
Fri 12:49:59 AM 20.8167 -156.6500 279° West 440 506 33,600 -1,934 Descending Honolulu Center
Fri 12:51:00 AM 20.8333 -156.7833 278° West 450 518 31,200 -2,529 Descending Honolulu Center
Fri 12:52:00 AM 20.8667 -156.9167 285° West 460 529 28,500 -2,800 Descending Honolulu Center
Fri 12:53:00 AM 20.8833 -157.0667 277° West 460 529 25,600 -2,950 Descending Honolulu Center
Fri 12:54:00 AM 20.9000 -157.1833 279° West 450 518 22,600 -2,950 Descending Honolulu Center
Fri 12:55:00 AM 20.9167 -157.3167 278° West 440 506 19,700 -3,550 Descending Honolulu Center
Fri 12:56:00 AM 20.9333 -157.4500 278° West 420 483 15,500 -4,450 Descending Honolulu Center
Fri 12:57:00 AM 20.9667 -157.5667 287° West 400 460 10,800 -3,521 Descending Honolulu Center
Fri 12:58:01 AM 21.0000 -157.6667 290° West 340 391 8,400 -1,950 Descending Honolulu Center
Fri 12:59:00 AM 21.0333 -157.7333 298° West 270 311 6,900 -1,664 Descending Honolulu Center
Fri 01:00:00 AM 21.0500 -157.8000 285° West 250 288 5,100 -1,686 Descending Honolulu Center
Fri 01:01:01 AM 21.0833 -157.8667 298° West 230 265 3,500 -1,240 Descending Honolulu Center
Fri 01:02:01 AM 21.1167 -157.9167 306° West 210 242 2,600 -950 Descending Honolulu Center
Fri 01:03:01 AM 21.1500 -157.9667 306° West 210 242 1,600 -1,000 Descending Honolulu Center

Login

Don't have an account? Register now (free) for customized features, flight alerts, and more!